Flight Track Log - Related Links

Times and Time Zones

All times are in EDT time to prevent confusion due to time zone crossing. See the CTL22 flight status page for this flight to view local times or setup timezone preferences in your user account.

Time Position Orientation Groundspeed Altitude Reporting Facility
EDT Latitude Longitude Course Direction KTS MPH feet Rate Location/Type
Fri 08:29:15 PM 42.1792 -85.4278 116° Southeast 134 154 4,000  Level Chicago Center
Fri 08:30:17 PM 42.1592 -85.3675 114° Southeast 143 165 5,000 871 Climbing Chicago Center
Fri 08:31:19 PM 42.1403 -85.3186 118° Southeast 148 170 5,800 823 Climbing Chicago Center
Fri 08:32:00 PM 42.1724 -85.1832 103° East  Level Estimated
Fri 08:32:21 PM 42.1228 -85.2675 115° Southeast 149 171 6,700  Level Chicago Center
Fri 08:33:00 PM 42.1619 -85.1219 103° East  Level Estimated
Fri 08:33:23 PM 42.1044 -85.2169 116° Southeast 150 173 7,000  Level Chicago Center
Fri 08:34:25 PM 42.0850 -85.1561 113° Southeast 167 192 7,000 48 Level Chicago Center
Fri 08:35:27 PM 42.0633 -85.0950 116° Southeast 177 204 7,100  Climbing Chicago Center
Fri 08:36:29 PM 42.0392 -85.0197 113° Southeast 181 208 7,000  Descending Chicago Center
Fri 08:37:31 PM 42.0194 -84.9589 114° Southeast 178 205 7,100 48 Climbing Chicago Center
Fri 08:38:33 PM 41.9983 -84.8978 115° Southeast 179 206 7,100 -48 Level Chicago Center
Fri 08:39:35 PM 41.9756 -84.8383 117° Southeast 178 205 7,000 -48 Descending Chicago Center
Fri 08:40:37 PM 41.9550 -84.7761 114° Southeast 181 208 7,000  Level Chicago Center
Fri 08:41:40 PM 41.9328 -84.7153 116° Southeast 181 208 7,000  Level Chicago Center
Fri 08:42:42 PM 41.9061 -84.6439 117° Southeast 179 206 7,000  Level Chicago Center
Fri 08:43:44 PM 41.8828 -84.5839 118° Southeast 180 207 7,000  Level Chicago Center
Fri 08:44:46 PM 41.8597 -84.5244 117° Southeast 180 207 7,000  Level Chicago Center
Fri 08:45:48 PM 41.8394 -84.4636 114° Southeast 179 206 7,000  Level Chicago Center
Fri 08:46:50 PM 41.8178 -84.4050 116° Southeast 178 205 7,000  Level Chicago Center
Fri 08:47:52 PM 41.7944 -84.3458 118° Southeast 178 205 7,000  Level Chicago Center
Fri 08:48:54 PM 41.7689 -84.2733 115° Southeast 179 206 7,000  Level Chicago Center
Fri 08:49:56 PM 41.7492 -84.2128 114° Southeast 179 206 7,000  Level Chicago Center
Fri 08:50:58 PM 41.7286 -84.1539 115° Southeast 177 204 7,000  Level Chicago Center
Fri 09:08:11 PM 41.6236 -83.0108 97° East 179 206 7,000  Level Cleveland Center
Fri 09:08:42 PM 41.6200 -82.9775 98° East 180 207 7,000  Level Cleveland Center
Fri 09:09:48 PM 41.6156 -82.9022 94° East 181 208 7,000  Level Cleveland Center
Fri 09:10:49 PM 41.6167 -82.8358 89° East 180 207 7,000  Level Cleveland Center
Fri 09:11:44 PM 41.6139 -82.7744 93° East 182 209 7,000 -344 Level Cleveland Center
Fri 09:12:51 PM 41.6111 -82.6967 93° East 193 222 6,300 -563 Descending Cleveland Center
Fri 09:13:52 PM 41.6081 -82.6272 93° East 191 220 5,800 -496 Descending Cleveland Center
Fri 09:14:52 PM 41.6075 -82.5492 91° East 190 219 5,300 -496 Descending Cleveland Center
Fri 09:15:53 PM 41.6067 -82.4797 91° East 191 220 4,800 -541 Descending Cleveland Center
Fri 09:16:54 PM 41.6036 -82.4103 93° East 187 215 4,200 -522 Descending Cleveland Center
Fri 09:17:48 PM 41.6044 -82.3492 89° East 187 215 3,800 -446 Descending Cleveland Center
Fri 09:18:55 PM 41.6036 -82.2714 91° East 188 216 3,300 -639 Descending Cleveland Center
Fri 09:19:50 PM 41.6003 -82.2075 94° East 191 220 2,500 -397 Descending Cleveland Center
Fri 09:20:56 PM 41.5972 -82.1381 93° East 167 192 2,500  Level Cleveland Center
Fri 09:21:51 PM 41.5894 -82.0822 101° East 158 182 2,500  Level Cleveland Center
Fri 09:22:58 PM 41.5758 -82.0125 105° East 163 188 2,500 -188 Level Cleveland Center
Fri 09:23:59 PM 41.5661 -81.9514 102° East 170 196 2,100 -492 Descending Cleveland Center
Fri 09:25:00 PM 41.5522 -81.8900 107° East 177 204 1,500 -248 Descending Cleveland Center
Fri 09:26:00 PM 41.5383 -81.8342 108° East 158 182 1,600  Climbing Cleveland Center
Fri 09:27:01 PM 41.5264 -81.7786 106° East 161 185 1,500 -295 Descending Cleveland Center
Fri 09:28:02 PM 41.5144 -81.7228 106° East 151 174 1,000 -492 Descending Cleveland Center
Fri 09:30:00 PM 41.5175 -81.6833 101° East  Level Estimated

Login

Don't have an account? Register now (free) for customized features, flight alerts, and more!